createdAt,value
2023-04-10T00:01:25.780Z,7.39
2023-04-10T00:03:53.930Z,7.36
2023-04-10T00:06:29.872Z,7.31
2023-04-10T00:12:00.772Z,7.30
2023-04-10T00:14:27.395Z,7.26
2023-04-10T00:16:54.080Z,7.19
2023-04-10T00:19:20.760Z,7.21
2023-04-10T00:21:47.435Z,7.17
2023-04-10T00:24:56.767Z,7.12
2023-04-10T00:28:00.644Z,7.04
2023-04-10T00:30:27.384Z,6.98
2023-04-10T00:32:53.978Z,6.93
2023-04-10T00:35:20.698Z,6.77
2023-04-10T00:37:47.287Z,6.49
2023-04-10T00:40:13.977Z,6.43
2023-04-10T00:43:02.437Z,6.26
2023-04-10T00:45:29.262Z,6.32
2023-04-10T00:47:56.720Z,6.24
2023-04-10T00:50:23.868Z,6.22
2023-04-10T00:52:51.807Z,6.29
2023-04-10T01:06:32.658Z,6.54
2023-04-10T01:09:04.335Z,6.54
2023-04-10T01:11:45.396Z,6.56
2023-04-10T01:14:58.917Z,6.54
2023-04-10T01:17:38.999Z,6.61
2023-04-10T01:20:13.430Z,6.52
2023-04-10T01:27:18.229Z,6.49
2023-04-10T01:29:47.956Z,6.41
2023-04-10T01:32:20.614Z,6.41
2023-04-10T01:34:51.112Z,6.20
2023-04-10T01:37:24.585Z,6.26
2023-04-10T01:39:59.019Z,6.13
2023-04-10T01:45:02.034Z,6.07
2023-04-10T01:47:29.091Z,5.90
2023-04-10T01:49:57.777Z,6.01
2023-04-10T01:59:00.226Z,6.29
2023-04-10T02:01:30.055Z,6.43
2023-04-10T02:03:58.494Z,6.50
2023-04-10T02:06:26.091Z,6.54
2023-04-10T02:09:24.783Z,6.53
2023-04-10T02:12:18.616Z,6.58
2023-04-10T02:14:47.388Z,6.59
2023-04-10T02:17:23.559Z,6.61
2023-04-10T02:19:53.278Z,6.66
2023-04-10T02:28:39.976Z,6.44
2023-04-10T02:31:07.381Z,6.41
2023-04-10T02:33:34.090Z,6.35
2023-04-10T02:36:01.530Z,6.41
2023-04-10T02:38:28.169Z,6.40
2023-04-10T02:40:54.762Z,6.45
2023-04-10T02:43:21.418Z,6.47
2023-04-10T02:45:48.030Z,6.46
2023-04-10T02:48:14.849Z,6.48
2023-04-10T02:50:46.139Z,6.48
2023-04-10T02:53:16.888Z,6.52
2023-04-10T02:55:43.493Z,6.50
2023-04-10T03:02:03.797Z,6.53
2023-04-10T03:04:38.646Z,6.42
2023-04-10T03:07:05.638Z,6.38
2023-04-10T03:09:32.205Z,6.35
2023-04-10T03:12:20.701Z,6.32
2023-04-10T03:14:47.432Z,6.34
2023-04-10T03:17:14.061Z,6.34
2023-04-10T03:19:40.883Z,6.29
2023-04-10T03:22:07.619Z,6.12
2023-04-10T03:24:34.438Z,5.91
2023-04-10T03:29:43.095Z,5.63
2023-04-10T03:32:09.648Z,5.73
2023-04-10T03:34:36.667Z,5.77
2023-04-10T03:37:27.717Z,5.85
2023-04-10T03:43:13.504Z,6.28
2023-04-10T03:45:43.098Z,6.22
2023-04-10T03:48:20.450Z,6.24
2023-04-10T03:50:56.962Z,6.30
2023-04-10T03:58:45.158Z,6.31
2023-04-10T04:25:10.977Z,5.75
2023-04-10T04:30:19.502Z,5.87
2023-04-10T04:32:46.129Z,5.86
2023-04-10T04:35:12.719Z,5.91
2023-04-10T04:37:39.310Z,5.94
2023-04-10T04:40:06.382Z,5.96
2023-04-10T04:47:49.524Z,5.92
2023-04-10T04:50:16.387Z,6.02
2023-04-10T04:52:44.260Z,6.09
2023-04-10T04:55:10.907Z,6.17
2023-04-10T04:57:56.243Z,6.22
2023-04-10T05:00:23.163Z,6.16
2023-04-10T05:02:52.794Z,6.04
2023-04-10T05:05:19.554Z,6.05
2023-04-10T05:07:48.744Z,6.09
2023-04-10T05:13:17.434Z,6.11
2023-04-10T05:15:45.085Z,6.25
2023-04-10T05:18:13.763Z,6.30
2023-04-10T05:20:40.643Z,6.50
2023-04-10T05:27:06.912Z,6.92
2023-04-10T05:29:33.675Z,7.12
2023-04-10T05:32:00.336Z,7.27
2023-04-10T05:34:26.915Z,7.47
2023-04-10T05:36:53.728Z,7.66
2023-04-10T05:39:20.592Z,7.77
2023-04-10T05:42:05.850Z,7.95
2023-04-10T05:44:32.429Z,8.13
2023-04-10T05:46:59.025Z,8.31
2023-04-10T05:49:25.693Z,8.41
2023-04-10T05:55:28.703Z,8.80
2023-04-10T05:57:55.314Z,9.05
2023-04-10T06:00:22.020Z,9.20
2023-04-10T06:07:59.189Z,9.60
2023-04-10T06:10:57.334Z,9.74
2023-04-10T06:13:47.372Z,10.01
2023-04-10T06:29:43.602Z,11.28
2023-04-10T06:32:13.151Z,11.80
2023-04-10T06:34:39.720Z,12.14
2023-04-10T06:37:06.346Z,12.81
2023-04-10T06:39:33.160Z,13.37
2023-04-10T06:42:20.427Z,14.36
2023-04-10T06:44:46.981Z,14.63
2023-04-10T06:47:13.779Z,14.43
2023-04-10T06:49:40.399Z,13.28
2023-04-10T06:56:09.354Z,13.15
2023-04-10T06:58:36.011Z,12.71
2023-04-10T07:01:04.739Z,12.86
2023-04-10T07:03:32.608Z,13.15
2023-04-10T07:05:59.889Z,12.95
2023-04-10T07:08:26.490Z,12.07
2023-04-10T07:10:53.176Z,12.16
2023-04-10T07:13:19.768Z,12.52
2023-04-10T07:15:46.664Z,11.99
2023-04-10T07:18:13.304Z,12.23
2023-04-10T07:20:40.165Z,11.96
2023-04-10T07:23:06.989Z,12.12
2023-04-10T07:25:34.077Z,12.19
2023-04-10T07:28:03.512Z,12.39
2023-04-10T07:30:30.398Z,12.72
2023-04-10T07:38:35.702Z,12.51
2023-04-10T07:41:02.652Z,12.79
2023-04-10T07:43:29.882Z,12.49
2023-04-10T07:45:56.948Z,12.93
2023-04-10T07:48:23.874Z,13.07
2023-04-10T07:50:50.452Z,13.41
2023-04-10T07:53:17.116Z,13.15
2023-04-10T07:55:47.542Z,13.65
2023-04-10T07:58:17.190Z,13.78
2023-04-10T08:00:43.818Z,15.13
2023-04-10T08:03:15.954Z,15.97
2023-04-10T08:05:42.727Z,16.44
2023-04-10T08:08:09.326Z,16.33
2023-04-10T08:10:39.402Z,16.94
2023-04-10T08:13:06.324Z,17.72
2023-04-10T08:15:38.159Z,18.32
2023-04-10T08:18:08.041Z,17.58
2023-04-10T08:20:37.094Z,16.41
2023-04-10T08:25:53.728Z,16.31
2023-04-10T08:28:21.353Z,16.26
2023-04-10T08:30:47.984Z,16.01
2023-04-10T08:33:14.610Z,15.71
2023-04-10T08:35:41.292Z,16.02
2023-04-10T08:38:13.420Z,15.73
2023-04-10T08:40:41.589Z,16.48
2023-04-10T08:43:08.195Z,16.72
2023-04-10T08:45:34.735Z,16.43
2023-04-10T08:48:06.464Z,15.37
2023-04-10T08:50:36.202Z,15.68
2023-04-10T08:53:10.884Z,15.99
2023-04-10T08:55:38.974Z,15.45
2023-04-10T08:58:06.105Z,15.25
2023-04-10T09:00:38.579Z,15.54
2023-04-10T09:03:11.771Z,16.36
2023-04-10T09:05:38.659Z,17.44
2023-04-10T09:08:07.251Z,18.04
2023-04-10T09:10:48.357Z,17.19
2023-04-10T09:13:14.905Z,18.89
2023-04-10T09:15:59.008Z,18.50
2023-04-10T09:18:45.532Z,18.56
2023-04-10T09:25:28.655Z,18.63
2023-04-10T09:28:09.781Z,18.43
2023-04-10T09:30:42.410Z,16.86
2023-04-10T09:33:30.146Z,17.61
2023-04-10T09:35:59.939Z,17.49
2023-04-10T09:38:26.989Z,16.66
2023-04-10T09:41:14.137Z,16.47
2023-04-10T09:43:43.431Z,16.73
2023-04-10T09:46:10.030Z,16.07
2023-04-10T09:48:36.702Z,16.62
2023-04-10T09:51:45.133Z,16.39
2023-04-10T09:54:37.066Z,16.45
2023-04-10T09:57:05.637Z,17.24
2023-04-10T09:59:32.785Z,17.42
2023-04-10T10:01:59.469Z,17.31
2023-04-10T10:04:27.151Z,17.05
2023-04-10T10:06:54.349Z,17.70
2023-04-10T10:09:44.223Z,17.54
2023-04-10T10:12:12.794Z,17.74
2023-04-10T10:14:57.347Z,17.65
2023-04-10T10:17:29.656Z,16.68
2023-04-10T10:20:35.416Z,17.30
2023-04-10T10:23:25.861Z,16.68
2023-04-10T10:25:54.721Z,16.17
2023-04-10T10:28:21.705Z,16.45
2023-04-10T10:30:51.646Z,16.90
2023-04-10T10:33:18.925Z,17.11
2023-04-10T10:35:46.839Z,17.61
2023-04-10T10:41:15.403Z,16.62
2023-04-10T10:43:54.763Z,17.10
2023-04-10T10:46:36.422Z,17.57
2023-04-10T10:49:03.051Z,16.95
2023-04-10T10:51:51.720Z,17.30
2023-04-10T10:55:20.921Z,16.41
2023-04-10T10:58:11.087Z,16.91
2023-04-10T11:00:52.854Z,17.49
2023-04-10T11:03:19.536Z,17.08
2023-04-10T11:05:54.214Z,17.47
2023-04-10T11:08:33.628Z,17.32
2023-04-10T11:11:09.616Z,17.15
2023-04-10T11:16:43.859Z,16.45
2023-04-10T11:19:19.001Z,16.52
2023-04-10T11:22:08.361Z,16.91
2023-04-10T11:24:56.270Z,16.95
2023-04-10T11:27:41.831Z,16.51
2023-04-10T11:31:04.886Z,17.29
2023-04-10T11:45:28.291Z,17.89
2023-04-10T11:48:13.036Z,17.89
2023-04-10T11:50:39.648Z,16.98
2023-04-10T11:53:19.036Z,16.89
2023-04-10T11:55:46.706Z,17.17
2023-04-10T11:59:09.956Z,17.08
2023-04-10T12:02:15.937Z,16.64
2023-04-10T12:04:44.216Z,16.71
2023-04-10T12:07:11.602Z,16.60
2023-04-10T12:09:38.544Z,16.88
2023-04-10T12:12:07.276Z,16.18
2023-04-10T12:14:41.845Z,16.04
2023-04-10T12:17:23.723Z,15.20
2023-04-10T12:19:50.378Z,15.73
2023-04-10T12:22:17.156Z,15.82
2023-04-10T12:24:45.071Z,15.49
2023-04-10T12:27:19.109Z,15.22
2023-04-10T12:30:17.127Z,16.00
2023-04-10T12:33:04.577Z,15.35
2023-04-10T12:35:44.109Z,14.29
2023-04-10T12:38:10.810Z,15.14
2023-04-10T12:40:38.558Z,15.00
2023-04-10T12:43:05.442Z,15.60
2023-04-10T12:45:45.091Z,15.61
2023-04-10T12:48:23.757Z,16.00
2023-04-10T12:50:50.602Z,16.46
2023-04-10T12:53:17.213Z,15.64
2023-04-10T12:56:03.575Z,14.90
2023-04-10T12:58:46.315Z,14.67
2023-04-10T13:01:39.036Z,15.55
2023-04-10T13:04:05.875Z,15.40
2023-04-10T13:06:32.853Z,15.50
2023-04-10T13:08:59.424Z,16.11
2023-04-10T13:11:25.965Z,16.28
2023-04-10T13:13:52.769Z,16.34
2023-04-10T13:16:38.224Z,16.75
2023-04-10T13:19:05.206Z,16.22
2023-04-10T13:21:31.939Z,16.34
2023-04-10T13:23:58.521Z,16.14
2023-04-10T13:26:25.357Z,16.90
2023-04-10T13:29:29.623Z,17.29
2023-04-10T13:32:06.050Z,17.21
2023-04-10T13:34:33.842Z,16.27
2023-04-10T13:37:00.966Z,16.25
2023-04-10T13:39:31.866Z,17.32
2023-04-10T13:41:59.656Z,17.91
2023-04-10T13:44:26.659Z,17.65
2023-04-10T13:49:31.014Z,17.44
2023-04-10T13:51:58.113Z,17.82
2023-04-10T13:54:24.774Z,18.00
2023-04-10T13:57:35.352Z,17.74
2023-04-10T14:00:36.358Z,17.83
2023-04-10T14:03:03.285Z,17.32
2023-04-10T14:05:30.018Z,17.26
2023-04-10T14:07:57.098Z,17.51
2023-04-10T14:10:24.335Z,17.40
2023-04-10T14:12:51.151Z,17.31
2023-04-10T14:18:05.878Z,17.35
2023-04-10T14:20:32.482Z,17.30
2023-04-10T14:22:59.085Z,17.20
2023-04-10T14:29:25.458Z,17.28
2023-04-10T14:32:15.472Z,17.37
2023-04-10T14:34:41.889Z,16.17
2023-04-10T14:37:08.492Z,16.54
2023-04-10T14:39:35.473Z,16.85
2023-04-10T14:42:02.641Z,16.47
2023-04-10T14:44:30.007Z,16.56
2023-04-10T14:46:56.688Z,16.76
2023-04-10T14:49:23.428Z,16.59
2023-04-10T14:51:50.437Z,16.64
2023-04-10T14:54:17.182Z,16.67
2023-04-10T14:57:32.009Z,16.34
2023-04-10T15:00:33.033Z,16.79
2023-04-10T15:03:00.389Z,16.96
2023-04-10T15:05:27.736Z,17.17
2023-04-10T15:07:55.084Z,17.47
2023-04-10T15:10:21.891Z,17.35
2023-04-10T15:12:48.497Z,17.33
2023-04-10T15:15:33.703Z,17.09
2023-04-10T15:18:00.484Z,17.22
2023-04-10T15:20:27.083Z,16.98
2023-04-10T15:22:53.747Z,17.06
2023-04-10T15:29:32.326Z,17.43
2023-04-10T15:32:01.888Z,17.14
2023-04-10T15:34:28.513Z,16.72
2023-04-10T15:36:55.132Z,16.79
2023-04-10T15:39:24.252Z,16.76
2023-04-10T15:41:50.873Z,17.04
2023-04-10T15:47:12.955Z,17.10
2023-04-10T15:49:39.521Z,17.18
2023-04-10T15:52:07.031Z,17.19
2023-04-10T15:54:35.136Z,17.10
2023-04-10T15:57:02.343Z,17.15
2023-04-10T15:59:30.335Z,16.85
2023-04-10T16:02:55.841Z,17.11
2023-04-10T16:05:41.424Z,17.06
2023-04-10T16:08:08.022Z,16.93
2023-04-10T16:10:35.957Z,16.90
2023-04-10T16:13:05.077Z,16.82
2023-04-10T16:15:34.676Z,16.97
2023-04-10T16:18:01.387Z,16.97
2023-04-10T16:20:46.544Z,16.91
2023-04-10T16:23:13.150Z,17.15
2023-04-10T16:25:39.770Z,17.25
2023-04-10T16:28:08.104Z,17.23
2023-04-10T16:34:27.616Z,17.24
2023-04-10T16:36:54.876Z,17.33
2023-04-10T16:39:21.489Z,17.20
2023-04-10T16:41:48.091Z,16.96
2023-04-10T16:44:14.693Z,16.74
2023-04-10T16:46:41.450Z,16.96
2023-04-10T16:49:08.054Z,16.97
2023-04-10T16:51:34.676Z,16.45
2023-04-10T16:54:01.283Z,16.54
2023-04-10T16:56:27.822Z,16.36
2023-04-10T16:58:54.777Z,16.21
2023-04-10T17:01:26.202Z,16.18
2023-04-10T17:03:54.272Z,16.16
2023-04-10T17:06:21.169Z,16.07
2023-04-10T17:08:48.224Z,16.29
2023-04-10T17:11:14.955Z,16.31
2023-04-10T17:13:41.753Z,16.34
2023-04-10T17:16:09.872Z,16.38
2023-04-10T17:18:37.163Z,16.27
2023-04-10T17:21:04.017Z,16.02
2023-04-10T17:23:30.660Z,16.27
2023-04-10T17:25:57.233Z,16.26
2023-04-10T17:28:23.870Z,16.16
2023-04-10T17:30:50.568Z,16.25
2023-04-10T17:33:17.175Z,16.07
2023-04-10T17:35:43.937Z,16.24
2023-04-10T17:38:10.608Z,16.37
2023-04-10T17:40:38.463Z,16.34
2023-04-10T17:43:05.071Z,16.34
2023-04-10T17:45:31.718Z,16.40
2023-04-10T17:47:58.462Z,16.36
2023-04-10T17:50:26.002Z,16.34
2023-04-10T17:52:52.971Z,16.33
2023-04-10T17:55:20.686Z,16.30
2023-04-10T17:57:48.951Z,16.21
2023-04-10T18:00:20.052Z,16.09
2023-04-10T18:02:48.359Z,16.13
2023-04-10T18:05:15.350Z,15.82
2023-04-10T18:07:41.988Z,15.81
2023-04-10T18:10:11.422Z,15.74
2023-04-10T18:12:38.226Z,15.89
2023-04-10T18:15:05.537Z,15.93
2023-04-10T18:17:32.210Z,15.99
2023-04-10T18:19:59.050Z,15.99
2023-04-10T18:22:25.691Z,15.92
2023-04-10T18:24:52.331Z,15.46
2023-04-10T18:27:18.974Z,15.31
2023-04-10T18:29:51.306Z,15.50
2023-04-10T18:32:20.550Z,14.98
2023-04-10T18:34:47.448Z,14.77
2023-04-10T18:37:14.463Z,15.10
2023-04-10T18:39:41.382Z,15.41
2023-04-10T18:42:12.580Z,15.24
2023-04-10T18:44:39.431Z,14.78
2023-04-10T18:47:06.355Z,15.03
2023-04-10T18:49:33.046Z,14.62
2023-04-10T18:52:00.299Z,14.73
2023-04-10T18:54:29.672Z,14.80
2023-04-10T18:56:59.012Z,14.88
2023-04-10T18:59:27.284Z,14.96
2023-04-10T19:01:54.154Z,14.97
2023-04-10T19:04:21.160Z,14.83
2023-04-10T19:06:47.880Z,14.66
2023-04-10T19:09:14.721Z,13.88
2023-04-10T19:11:44.739Z,13.94
2023-04-10T19:14:11.314Z,13.74
2023-04-10T19:16:39.151Z,13.45
2023-04-10T19:19:06.031Z,13.60
2023-04-10T19:21:34.423Z,13.97
2023-04-10T19:24:00.997Z,13.50
2023-04-10T19:26:27.700Z,13.77
2023-04-10T19:28:55.127Z,13.98
2023-04-10T19:31:23.546Z,14.27
2023-04-10T19:33:50.195Z,14.55
2023-04-10T19:36:18.640Z,14.76
2023-04-10T19:38:48.650Z,14.84
2023-04-10T19:41:15.735Z,14.84
2023-04-10T19:43:42.735Z,14.93
2023-04-10T19:46:17.405Z,14.95
2023-04-10T19:48:44.100Z,14.93
2023-04-10T19:51:10.868Z,14.92
2023-04-10T19:53:38.213Z,14.82
2023-04-10T19:56:05.521Z,14.81
2023-04-10T19:58:40.651Z,14.84
2023-04-10T20:01:19.065Z,14.80
2023-04-10T20:03:45.914Z,14.72
2023-04-10T20:06:13.085Z,14.65
2023-04-10T20:08:39.777Z,14.66
2023-04-10T20:11:06.819Z,14.68
2023-04-10T20:13:34.946Z,14.71
2023-04-10T20:16:02.081Z,14.72
2023-04-10T20:18:28.773Z,14.59
2023-04-10T20:20:55.428Z,14.58
2023-04-10T20:23:22.029Z,14.57
2023-04-10T20:25:48.628Z,14.52
2023-04-10T20:28:16.867Z,14.29
2023-04-10T20:30:44.074Z,14.28
2023-04-10T20:33:11.548Z,14.27
2023-04-10T20:35:38.318Z,14.25
2023-04-10T20:38:05.158Z,14.09
2023-04-10T20:40:31.829Z,13.91
2023-04-10T20:42:58.409Z,13.81
2023-04-10T20:45:24.985Z,13.76
2023-04-10T20:47:51.733Z,13.88
2023-04-10T20:50:18.740Z,13.94
2023-04-10T20:52:45.434Z,13.91
2023-04-10T20:55:12.182Z,13.86
2023-04-10T20:57:38.750Z,13.82
2023-04-10T21:00:05.988Z,13.57
2023-04-10T21:02:32.689Z,13.40
2023-04-10T21:05:20.712Z,13.17
2023-04-10T21:08:21.192Z,13.33
2023-04-10T21:10:47.754Z,13.31
2023-04-10T21:13:15.149Z,13.27
2023-04-10T21:15:43.209Z,13.25
2023-04-10T21:18:10.316Z,13.08
2023-04-10T21:20:37.059Z,12.89
2023-04-10T21:23:25.446Z,12.76
2023-04-10T21:25:54.965Z,12.62
2023-04-10T21:28:21.578Z,12.31
2023-04-10T21:30:48.248Z,12.18
2023-04-10T21:34:10.983Z,12.29
2023-04-10T21:39:49.983Z,11.95
2023-04-10T21:42:18.433Z,11.93
2023-04-10T21:44:45.046Z,11.80
2023-04-10T21:47:11.624Z,11.95
2023-04-10T21:49:40.544Z,11.97
2023-04-10T21:52:07.180Z,11.84
2023-04-10T21:54:33.729Z,11.72
2023-04-10T21:57:00.304Z,11.55
2023-04-10T21:59:27.141Z,11.37
2023-04-10T22:01:53.778Z,11.51
2023-04-10T22:04:20.596Z,11.40
2023-04-10T22:06:47.200Z,11.27
2023-04-10T22:09:14.182Z,11.32
2023-04-10T22:11:41.064Z,11.20
2023-04-10T22:14:15.388Z,11.11
2023-04-10T22:16:43.986Z,11.18
2023-04-10T22:22:32.898Z,10.93
2023-04-10T22:24:59.629Z,10.90
2023-04-10T22:27:26.236Z,10.81
2023-04-10T22:30:02.057Z,10.58
2023-04-10T22:32:30.424Z,10.42
2023-04-10T22:34:58.861Z,10.16
2023-04-10T22:37:26.005Z,10.02
2023-04-10T22:39:52.862Z,10.33
2023-04-10T22:42:19.489Z,10.14
2023-04-10T22:44:46.067Z,9.90
2023-04-10T22:47:12.688Z,9.68
2023-04-10T22:49:39.353Z,9.81
2023-04-10T22:52:08.558Z,9.85
2023-04-10T22:54:35.153Z,9.63
2023-04-10T22:57:01.685Z,9.59
2023-04-10T22:59:28.235Z,9.66
2023-04-10T23:01:54.869Z,9.41
2023-04-10T23:04:21.549Z,9.45
2023-04-10T23:06:48.201Z,9.46
2023-04-10T23:09:14.797Z,9.68
2023-04-10T23:11:41.413Z,9.75
2023-04-10T23:14:08.098Z,9.29
2023-04-10T23:16:34.756Z,9.37
2023-04-10T23:19:01.429Z,9.35
2023-04-10T23:21:27.972Z,9.25
2023-04-10T23:23:54.580Z,9.27
2023-04-10T23:26:21.223Z,9.41
2023-04-10T23:28:48.084Z,9.76
2023-04-10T23:31:15.894Z,9.90
2023-04-10T23:33:42.536Z,9.79
2023-04-10T23:36:09.378Z,9.36
2023-04-10T23:38:36.326Z,9.48
2023-04-10T23:41:03.164Z,9.20
2023-04-10T23:43:29.912Z,9.27
2023-04-10T23:45:56.492Z,9.16
2023-04-10T23:48:23.101Z,9.11
2023-04-10T23:50:49.911Z,8.98
2023-04-10T23:53:16.951Z,8.98
2023-04-10T23:55:43.639Z,8.87
2023-04-10T23:58:10.565Z,9.07
